Time;durP1;ratioP1;P1;durP2;ratioP2;P2;SDS_P1;SDS_P2;PMS_P1;PMS_P2;Temp;Humidity;BMP_temperature;BMP_pressure;BME280_temperature;BME280_humidity;BME280_pressure;Samples;Min_cycle;Max_cycle;Signal;HPM_P1;HPM_P2
2023/11/09 00:01:45;;;;;;;2.33;1.40;;;;;;;2.80;100.00;92775.44;6269721;22;20402;-73
2023/11/09 00:04:11;;;;;;;3.33;1.40;;;;;;;2.78;100.00;92777.47;6269903;22;20019;-73
2023/11/09 00:06:36;;;;;;;3.03;1.40;;;;;;;2.76;100.00;92777.69;6270212;22;20011;-73
2023/11/09 00:09:03;;;;;;;2.58;1.60;;;;;;;2.75;100.00;92770.16;6269315;22;20042;-73
2023/11/09 00:11:30;;;;;;;2.50;1.17;;;;;;;2.74;100.00;92773.75;6270109;22;20468;-73
2023/11/09 00:13:55;;;;;;;2.03;1.25;;;;;;;2.74;100.00;92771.97;6269836;22;20022;-73
2023/11/09 00:16:21;;;;;;;2.80;1.40;;;;;;;2.74;100.00;92776.34;6242560;22;20003;-73
2023/11/09 00:18:48;;;;;;;2.47;1.45;;;;;;;2.69;100.00;92775.22;6269825;22;20015;-73
2023/11/09 00:21:14;;;;;;;4.85;1.63;;;;;;;2.67;100.00;92764.34;6242976;22;20025;-73
2023/11/09 00:23:39;;;;;;;3.00;1.70;;;;;;;2.67;100.00;92766.91;6270070;22;20328;-73
2023/11/09 00:26:06;;;;;;;3.13;1.60;;;;;;;2.67;100.00;92769.50;6270143;22;20425;-73
2023/11/09 00:28:32;;;;;;;3.10;1.60;;;;;;;2.66;100.00;92767.16;6270299;22;20276;-73
2023/11/09 00:30:58;;;;;;;2.60;1.50;;;;;;;2.65;100.00;92766.38;6270288;22;20421;-73
2023/11/09 00:33:24;;;;;;;2.95;1.60;;;;;;;2.63;100.00;92754.69;6269375;22;20019;-73
2023/11/09 00:35:50;;;;;;;2.17;1.30;;;;;;;2.60;100.00;92750.78;6242247;22;20019;-73
2023/11/09 00:38:16;;;;;;;2.45;1.45;;;;;;;2.58;100.00;92745.03;6269634;22;20008;-73
2023/11/09 00:40:42;;;;;;;4.20;1.52;;;;;;;2.59;100.00;92753.56;6224080;22;20019;-74
2023/11/09 00:43:08;;;;;;;2.67;1.30;;;;;;;2.55;100.00;92750.69;6268103;22;20012;-73
2023/11/09 00:45:34;;;;;;;3.40;1.50;;;;;;;2.58;100.00;92750.22;6269496;22;20386;-73
2023/11/09 00:48:04;;;;;;;3.47;1.42;;;;;;;2.54;100.00;92743.94;6269641;22;20014;-73
2023/11/09 00:50:30;;;;;;;2.30;1.30;;;;;;;2.52;100.00;92745.94;6268165;22;20472;-73
2023/11/09 00:52:55;;;;;;;1.83;1.20;;;;;;;2.49;100.00;92743.84;6267894;22;20015;-73
2023/11/09 00:55:21;;;;;;;2.00;1.20;;;;;;;2.49;100.00;92747.19;6268053;22;20004;-73
2023/11/09 00:57:47;;;;;;;3.35;1.33;;;;;;;2.49;100.00;92743.84;6268905;22;20723;-73
2023/11/09 01:00:13;;;;;;;2.10;1.38;;;;;;;2.47;100.00;92738.88;6268542;22;20007;-73
2023/11/09 01:02:39;;;;;;;3.35;1.50;;;;;;;2.49;100.00;92736.88;6269307;22;20008;-73
2023/11/09 01:05:09;;;;;;;2.90;1.42;;;;;;;2.51;100.00;92739.22;6269555;22;20083;-73
2023/11/09 01:07:35;;;;;;;2.20;1.27;;;;;;;2.49;100.00;92736.09;6269301;22;20012;-73
2023/11/09 01:10:00;;;;;;;2.17;1.30;;;;;;;2.51;100.00;92736.66;6269811;22;20299;-73
2023/11/09 01:12:27;;;;;;;2.55;1.40;;;;;;;2.48;100.00;92730.13;6269676;22;20375;-73
2023/11/09 01:14:52;;;;;;;2.25;1.40;;;;;;;2.52;100.00;92740.78;6268881;22;20015;-73
2023/11/09 01:17:18;;;;;;;1.92;1.20;;;;;;;2.52;100.00;92732.25;6267107;22;20012;-73
2023/11/09 01:19:44;;;;;;;1.85;1.20;;;;;;;2.50;100.00;92735.88;6269569;22;20018;-73
2023/11/09 01:22:09;;;;;;;2.00;1.35;;;;;;;2.49;100.00;92739.44;6267479;22;20081;-73
2023/11/09 01:24:35;;;;;;;3.30;1.45;;;;;;;2.49;100.00;92744.63;6268989;22;20035;-73
2023/11/09 01:27:01;;;;;;;1.60;1.17;;;;;;;2.50;100.00;92740.25;6267775;22;20399;-73
2023/11/09 01:29:27;;;;;;;2.15;1.20;;;;;;;2.47;100.00;92738.88;6267748;22;20015;-73
2023/11/09 01:31:54;;;;;;;2.47;1.40;;;;;;;2.45;100.00;92737.56;6269452;22;20488;-73
2023/11/09 01:34:21;;;;;;;2.33;1.30;;;;;;;2.45;100.00;92737.56;6269290;22;20372;-73
2023/11/09 01:36:46;;;;;;;1.85;1.20;;;;;;;2.47;100.00;92730.34;6269142;22;20094;-73
2023/11/09 01:39:12;;;;;;;4.65;1.38;;;;;;;2.47;100.00;92730.34;6268982;22;20085;-73
2023/11/09 01:41:39;;;;;;;2.83;1.30;;;;;;;2.46;100.00;92729.59;6267304;22;20024;-73
2023/11/09 01:44:04;;;;;;;2.08;1.23;;;;;;;2.46;100.00;92739.13;6268784;22;20039;-73
2023/11/09 01:46:31;;;;;;;2.58;1.48;;;;;;;2.46;100.00;92731.38;6267555;22;20011;-73
2023/11/09 01:48:58;;;;;;;2.72;1.40;;;;;;;2.47;100.00;92731.13;6268803;22;20011;-73
2023/11/09 01:51:25;;;;;;;3.28;1.50;;;;;;;2.48;100.00;92724.19;6268177;22;20376;-73
2023/11/09 01:53:51;;;;;;;3.38;1.40;;;;;;;2.50;100.00;92714.41;6269392;22;20063;-73
2023/11/09 01:56:19;;;;;;;2.95;1.30;;;;;;;2.50;100.00;92714.41;6269563;22;20468;-73
2023/11/09 01:58:47;;;;;;;1.70;1.20;;;;;;;2.53;100.00;92713.94;6267156;22;20091;-73
2023/11/09 02:01:13;;;;;;;2.13;1.27;;;;;;;2.54;100.00;92710.31;6267105;22;20014;-73
2023/11/09 02:03:43;;;;;;;2.33;1.35;;;;;;;2.53;100.00;92703.59;6267288;22;20011;-73
2023/11/09 02:06:10;;;;;;;2.00;1.20;;;;;;;2.55;100.00;92704.16;6267384;22;20088;-73
2023/11/09 02:08:39;;;;;;;2.28;1.33;;;;;;;2.59;100.00;92700.09;6269379;22;20004;-73
2023/11/09 02:11:05;;;;;;;3.20;1.30;;;;;;;2.63;100.00;92701.19;6269186;22;20453;-72
2023/11/09 02:13:32;;;;;;;2.47;1.50;;;;;;;2.69;100.00;92702.84;6271382;22;20019;-73
2023/11/09 02:16:00;;;;;;;3.22;1.38;;;;;;;2.75;100.00;92695.97;6270022;22;20019;-73
2023/11/09 02:18:26;;;;;;;4.65;1.33;;;;;;;2.80;100.00;92684.94;6269491;22;20090;-73
2023/11/09 02:20:52;;;;;;;1.90;1.20;;;;;;;2.84;100.00;92678.28;6269269;22;20281;-73
2023/11/09 02:23:25;;;;;;;2.50;1.30;;;;;;;2.92;100.00;92665.75;6269266;22;20018;-73
2023/11/09 02:25:52;;;;;;;3.05;1.23;;;;;;;3.00;100.00;92656.81;6268913;22;20015;-73
2023/11/09 02:28:19;;;;;;;2.28;1.20;;;;;;;3.07;100.00;92654.09;6270305;22;20457;-73
2023/11/09 02:30:47;;;;;;;2.50;1.40;;;;;;;3.15;100.00;92648.50;6270837;22;20024;-73
2023/11/09 02:33:13;;;;;;;2.85;1.40;;;;;;;3.19;100.00;92639.25;6269557;22;20014;-73
2023/11/09 02:35:40;;;;;;;1.77;1.20;;;;;;;3.25;100.00;92642.72;6244316;22;20032;-73
2023/11/09 02:38:08;;;;;;;1.95;1.27;;;;;;;3.27;100.00;92640.66;6272576;22;20465;-73
2023/11/09 02:40:35;;;;;;;1.98;1.30;;;;;;;3.29;100.00;92641.22;6270583;22;20020;-73
2023/11/09 02:43:01;;;;;;;1.77;1.20;;;;;;;3.31;100.00;92645.13;6269690;22;20019;-73
2023/11/09 02:45:26;;;;;;;1.92;1.27;;;;;;;3.36;100.00;92644.41;6270210;22;20011;-73
2023/11/09 02:47:52;;;;;;;1.85;1.10;;;;;;;3.39;100.00;92638.75;6270821;22;20300;-73
2023/11/09 02:50:18;;;;;;;10.55;1.70;;;;;;;3.43;100.00;92641.66;6270690;22;20094;-73
2023/11/09 02:52:43;;;;;;;2.17;1.33;;;;;;;3.46;100.00;92639.38;6269240;22;20453;-73
2023/11/09 02:55:09;;;;;;;1.98;1.23;;;;;;;3.50;100.00;92637.88;6270746;22;20022;-73
2023/11/09 02:57:35;;;;;;;3.28;1.67;;;;;;;3.55;100.00;92637.16;6270794;22;20004;-72
2023/11/09 03:00:03;;;;;;;3.28;1.50;;;;;;;3.58;100.00;92631.53;6270901;22;20393;-73
2023/11/09 03:02:28;;;;;;;2.20;1.27;;;;;;;3.61;100.00;92631.03;6268427;22;20357;-73
2023/11/09 03:04:54;;;;;;;2.33;1.35;;;;;;;3.67;100.00;92624.91;6271180;22;20015;-73
2023/11/09 03:07:20;;;;;;;2.47;1.20;;;;;;;3.73;100.00;92620.56;6270482;22;20086;-72
2023/11/09 03:09:45;;;;;;;2.83;1.42;;;;;;;3.75;100.00;92627.06;6269377;22;20061;-73
2023/11/09 03:12:11;;;;;;;3.17;1.40;;;;;;;3.77;100.00;92623.47;6268233;22;20019;-73
2023/11/09 03:14:37;;;;;;;2.03;1.30;;;;;;;3.87;100.00;92629.56;6270509;22;20019;-73
2023/11/09 03:17:07;;;;;;;4.00;1.60;;;;;;;4.05;100.00;92630.25;6243362;22;20004;-73
2023/11/09 03:19:35;;;;;;;2.72;1.23;;;;;;;4.03;100.00;92616.75;6269217;22;20293;-73
2023/11/09 03:22:01;;;;;;;3.28;1.40;;;;;;;3.94;100.00;92614.59;6270952;22;20046;-73
2023/11/09 03:24:29;;;;;;;2.95;1.60;;;;;;;3.90;100.00;92612.75;6268792;22;20012;-73
2023/11/09 03:26:56;;;;;;;4.25;1.80;;;;;;;3.88;100.00;92609.63;6270163;22;20380;-73
2023/11/09 03:29:23;;;;;;;2.78;1.70;;;;;;;3.90;100.00;92610.16;6269927;22;20292;-73
2023/11/09 03:31:49;;;;;;;2.25;1.42;;;;;;;3.88;100.00;92602.63;6268982;22;20026;-73
2023/11/09 03:34:15;;;;;;;3.55;1.50;;;;;;;3.87;100.00;92598.47;6270302;22;20012;-73
2023/11/09 03:36:40;;;;;;;3.38;1.73;;;;;;;3.85;100.00;92594.53;6269973;22;20003;-73
2023/11/09 03:39:06;;;;;;;2.47;1.52;;;;;;;3.84;100.00;92595.56;6269238;22;20011;-73
2023/11/09 03:41:32;;;;;;;2.78;1.50;;;;;;;3.82;100.00;92595.81;6268790;22;20027;-73
2023/11/09 03:43:58;;;;;;;2.33;1.40;;;;;;;3.80;100.00;92595.25;6270571;22;20019;-73
2023/11/09 03:46:23;;;;;;;4.05;1.67;;;;;;;3.78;100.00;92602.50;6269953;22;20000;-73
2023/11/09 03:48:49;;;;;;;3.35;1.40;;;;;;;3.77;100.00;92597.56;6269702;22;20008;-73
2023/11/09 03:51:15;;;;;;;4.00;1.33;;;;;;;3.76;100.00;92604.56;6269613;22;20012;-73
2023/11/09 03:53:42;;;;;;;2.70;1.35;;;;;;;3.75;100.00;92600.38;6270194;22;20010;-73
2023/11/09 03:56:08;;;;;;;2.28;1.30;;;;;;;3.74;100.00;92604.00;6270703;22;20027;-73
2023/11/09 03:58:34;;;;;;;3.03;1.50;;;;;;;3.74;100.00;92598.84;6268606;22;20018;-73
2023/11/09 04:01:00;;;;;;;5.00;1.45;;;;;;;3.75;100.00;92597.81;6269842;22;20004;-73
2023/11/09 04:03:26;;;;;;;3.80;1.40;;;;;;;3.77;100.00;92588.00;6271479;22;20016;-73
2023/11/09 04:05:52;;;;;;;3.45;1.80;;;;;;;3.78;100.00;92592.13;6271439;22;20022;-73
2023/11/09 04:08:18;;;;;;;5.28;1.70;;;;;;;3.78;100.00;92593.94;6269869;22;20018;-73
2023/11/09 04:10:44;;;;;;;2.30;1.40;;;;;;;3.76;100.00;92581.25;6270611;22;20012;-73
2023/11/09 04:13:10;;;;;;;2.53;1.30;;;;;;;3.78;100.00;92584.34;6270138;22;20357;-73
2023/11/09 04:15:40;;;;;;;2.63;1.20;;;;;;;3.81;100.00;92583.91;6268926;22;20373;-73
2023/11/09 04:18:06;;;;;;;2.75;1.55;;;;;;;3.81;100.00;92572.75;6271130;22;20102;-73
2023/11/09 04:20:32;;;;;;;2.42;1.58;;;;;;;3.82;100.00;92580.28;6269889;22;20083;-73
2023/11/09 04:22:58;;;;;;;3.97;1.40;;;;;;;3.84;100.00;92578.22;6269723;22;20057;-73
2023/11/09 04:25:24;;;;;;;2.10;1.30;;;;;;;3.87;100.00;92567.41;6270122;22;20724;-73
2023/11/09 04:27:50;;;;;;;2.42;1.35;;;;;;;3.89;100.00;92565.31;6271063;22;20047;-73
2023/11/09 04:30:16;;;;;;;3.03;1.20;;;;;;;3.89;100.00;92564.53;6268272;22;20629;-73
2023/11/09 04:32:43;;;;;;;2.50;1.60;;;;;;;3.94;100.00;92574.94;6271602;22;20011;-73
2023/11/09 04:35:09;;;;;;;2.45;1.50;;;;;;;3.93;100.00;92576.78;6269697;22;20006;-73
2023/11/09 04:37:41;;;;;;;2.22;1.40;;;;;;;3.92;100.00;92567.44;6269377;22;20011;-73
2023/11/09 04:40:15;;;;;;;3.00;1.42;;;;;;;3.94;100.00;92573.16;6269810;22;20012;-73
2023/11/09 04:42:49;;;;;;;2.60;1.40;;;;;;;3.94;100.00;92567.19;6269320;22;20019;-73
2023/11/09 04:45:16;;;;;;;2.72;1.50;;;;;;;3.94;100.00;92568.00;6269989;22;20039;-73
2023/11/09 04:47:45;;;;;;;2.63;1.35;;;;;;;3.96;100.00;92563.34;6270193;22;20437;-73
2023/11/09 04:50:17;;;;;;;1.73;1.20;;;;;;;3.98;100.00;92563.09;6269569;22;20012;-73
2023/11/09 04:52:52;;;;;;;2.25;1.27;;;;;;;4.00;100.00;92555.09;6269593;22;20016;-73
2023/11/09 04:55:31;;;;;;;2.28;1.45;;;;;;;4.00;100.00;92557.69;6269414;22;20473;-73
2023/11/09 05:08:55;;;;;;;2.05;1.20;;;;;;;4.04;100.00;92554.34;6270405;22;20330;-73
2023/11/09 05:11:20;;;;;;;2.75;1.20;;;;;;;4.04;100.00;92562.13;6242864;22;20007;-73
2023/11/09 05:13:46;;;;;;;2.17;1.23;;;;;;;4.06;100.00;92556.72;6269875;22;20007;-73
2023/11/09 05:16:12;;;;;;;2.28;1.40;;;;;;;4.08;100.00;92559.84;6269005;22;20020;-73
2023/11/09 05:18:43;;;;;;;3.90;1.67;;;;;;;4.09;100.00;92556.22;6269152;22;19996;-73
2023/11/09 05:21:09;;;;;;;3.17;1.50;;;;;;;4.09;100.00;92558.81;6269203;22;20372;-73
2023/11/09 05:23:35;;;;;;;2.10;1.27;;;;;;;4.09;100.00;92556.22;6269436;22;20011;-73
2023/11/09 05:26:01;;;;;;;4.80;1.40;;;;;;;4.09;100.00;92556.22;6269366;22;20377;-73
2023/11/09 05:28:27;;;;;;;1.90;1.23;;;;;;;4.09;100.00;92545.84;6242277;22;20054;-73
2023/11/09 05:30:54;;;;;;;2.88;1.40;;;;;;;4.11;100.00;92547.16;6269356;22;20007;-73
2023/11/09 05:33:20;;;;;;;2.17;1.30;;;;;;;4.14;100.00;92556.25;6268934;22;20011;-74
2023/11/09 05:35:45;;;;;;;2.05;1.23;;;;;;;4.14;100.00;92551.88;6269037;22;20018;-73
2023/11/09 05:38:11;;;;;;;2.20;1.30;;;;;;;4.17;100.00;92555.78;6216655;22;20488;-73
2023/11/09 05:40:37;;;;;;;3.00;1.48;;;;;;;4.18;100.00;92552.16;6247152;22;20023;-74
2023/11/09 05:43:03;;;;;;;3.53;1.40;;;;;;;4.17;100.00;92550.59;6270832;22;20388;-73
2023/11/09 05:45:29;;;;;;;2.28;1.40;;;;;;;4.16;100.00;92552.38;6268523;22;20012;-74
2023/11/09 05:47:56;;;;;;;2.25;1.35;;;;;;;4.16;100.00;92554.19;6265918;22;20028;-73
2023/11/09 05:50:22;;;;;;;2.08;1.38;;;;;;;4.17;100.00;92556.56;6267891;22;20473;-74
2023/11/09 05:52:48;;;;;;;2.30;1.30;;;;;;;4.17;100.00;92548.78;6267973;22;20061;-75
2023/11/09 05:55:13;;;;;;;1.95;1.25;;;;;;;4.18;100.00;92552.16;6267786;22;20008;-73
2023/11/09 05:57:40;;;;;;;2.00;1.25;;;;;;;4.17;100.00;92550.59;6265712;22;20069;-73
2023/11/09 06:00:08;;;;;;;4.53;1.40;;;;;;;4.33;100.00;92552.28;6265437;22;20341;-74
2023/11/09 06:02:36;;;;;;;2.28;1.20;;;;;;;4.34;100.00;92556.44;6267123;22;20008;-73
2023/11/09 06:05:03;;;;;;;2.65;1.60;;;;;;;4.33;100.00;92548.94;6266650;22;20020;-73
2023/11/09 06:07:30;;;;;;;2.33;1.30;;;;;;;4.35;100.00;92552.06;6267605;22;20041;-73
2023/11/09 06:09:56;;;;;;;1.67;1.10;;;;;;;4.41;100.00;92560.66;6267429;22;20003;-73
2023/11/09 06:12:22;;;;;;;1.98;1.30;;;;;;;4.48;100.00;92556.03;6267873;22;20016;-74
2023/11/09 06:14:47;;;;;;;2.20;1.40;;;;;;;4.51;100.00;92550.38;6267462;22;20038;-73
2023/11/09 06:17:13;;;;;;;1.55;1.13;;;;;;;4.47;100.00;92549.31;6267667;22;20007;-74
2023/11/09 06:19:38;;;;;;;6.05;1.75;;;;;;;4.44;100.00;92549.81;6266384;22;20007;-73
2023/11/09 06:22:05;;;;;;;3.97;1.67;;;;;;;4.49;100.00;92545.44;6268019;22;20027;-73
2023/11/09 06:24:30;;;;;;;8.13;1.58;;;;;;;4.45;100.00;92556.53;6267956;22;20078;-73
2023/11/09 06:26:57;;;;;;;4.55;1.90;;;;;;;4.44;100.00;92555.00;6267400;22;20035;-73
2023/11/09 06:29:22;;;;;;;2.70;1.50;;;;;;;4.40;100.00;92559.09;6267524;22;20400;-73
2023/11/09 06:31:50;;;;;;;3.30;1.65;;;;;;;4.37;100.00;92565.56;6267798;22;20012;-73
2023/11/09 06:34:16;;;;;;;2.22;1.45;;;;;;;4.35;100.00;92562.44;6267055;22;20004;-74
2023/11/09 06:36:45;;;;;;;5.63;1.70;;;;;;;4.33;100.00;92565.25;6267837;22;20015;-74
2023/11/09 06:39:16;;;;;;;3.15;1.77;;;;;;;4.32;100.00;92568.09;6267134;22;20095;-73
2023/11/09 06:41:47;;;;;;;2.78;1.60;;;;;;;4.30;100.00;92570.94;6164707;22;20026;-73
2023/11/09 06:44:14;;;;;;;7.15;1.83;;;;;;;4.30;100.00;92559.75;6140920;23;20089;-74
2023/11/09 06:46:40;;;;;;;3.55;1.48;;;;;;;4.28;100.00;92552.25;6115783;23;20123;-72
2023/11/09 06:49:06;;;;;;;2.95;1.40;;;;;;;4.32;100.00;92552.53;6139699;23;20089;-72
2023/11/09 06:51:33;;;;;;;2.58;1.42;;;;;;;4.32;100.00;92555.94;6143421;23;20080;-74
2023/11/09 06:53:58;;;;;;;3.28;1.50;;;;;;;4.35;100.00;92563.19;6143002;23;20006;-73
2023/11/09 06:56:24;;;;;;;2.20;1.40;;;;;;;4.37;100.00;92560.38;6140984;23;20078;-74
2023/11/09 06:58:50;;;;;;;2.25;1.40;;;;;;;4.41;100.00;92551.06;6142832;23;20020;-74
2023/11/09 07:01:15;;;;;;;2.45;1.50;;;;;;;4.45;100.00;92556.53;6141611;23;20012;-74
2023/11/09 07:03:41;;;;;;;3.20;1.52;;;;;;;4.53;100.00;92551.69;6143834;23;20033;-74
2023/11/09 07:06:06;;;;;;;2.35;1.50;;;;;;;4.52;100.00;92546.75;6144688;23;20075;-74
2023/11/09 07:08:33;;;;;;;3.05;1.50;;;;;;;4.54;100.00;92561.03;6144136;23;20428;-74
2023/11/09 07:10:59;;;;;;;2.25;1.38;;;;;;;4.53;100.00;92564.66;6145204;23;20014;-74
2023/11/09 07:13:25;;;;;;;2.20;1.33;;;;;;;4.54;100.00;92555.06;6118495;23;20005;-74
2023/11/09 07:15:52;;;;;;;3.65;1.17;;;;;;;4.58;100.00;92554.31;6143629;23;20021;-74
2023/11/09 07:18:19;;;;;;;2.05;1.35;;;;;;;4.61;100.00;92558.22;6145294;23;20024;-74
2023/11/09 07:20:45;;;;;;;3.05;1.48;;;;;;;4.64;100.00;92564.72;6145639;23;20057;-74
2023/11/09 07:23:11;;;;;;;2.40;1.40;;;;;;;4.60;100.00;92574.81;6145383;23;20060;-73
2023/11/09 07:25:37;;;;;;;2.83;1.50;;;;;;;4.65;100.00;92582.63;6143389;23;20013;-74
2023/11/09 07:28:04;;;;;;;3.65;1.35;;;;;;;4.66;100.00;92579.03;6144887;23;20008;-74
2023/11/09 07:30:33;;;;;;;3.22;1.30;;;;;;;4.72;100.00;92567.66;6144529;23;20020;-73
2023/11/09 07:33:00;;;;;;;1.73;1.25;;;;;;;4.74;100.00;92568.19;6145571;23;20006;-74
2023/11/09 07:35:27;;;;;;;2.47;1.42;;;;;;;4.76;100.00;92568.72;6144206;23;20018;-74
2023/11/09 07:37:53;;;;;;;3.17;1.40;;;;;;;4.95;100.00;92573.53;6145537;23;20057;-74
2023/11/09 07:40:19;;;;;;;5.15;1.80;;;;;;;4.85;100.00;92584.63;6144842;23;20018;-74
2023/11/09 07:42:45;;;;;;;2.42;1.40;;;;;;;4.76;100.00;92579.09;6145307;23;20088;-74
2023/11/09 07:45:11;;;;;;;2.92;1.50;;;;;;;4.77;100.00;92596.25;6119210;23;20045;-74
2023/11/09 07:47:37;;;;;;;2.22;1.48;;;;;;;4.73;100.00;92584.78;6144346;23;20063;-74
2023/11/09 07:50:05;;;;;;;2.22;1.40;;;;;;;4.55;100.00;92590.34;6144609;23;20009;-74
2023/11/09 07:52:31;;;;;;;2.85;1.45;;;;;;;4.51;100.00;92597.03;6144477;23;20071;-74
2023/11/09 07:54:56;;;;;;;2.38;1.50;;;;;;;4.43;100.00;92587.09;6144787;23;20017;-74
2023/11/09 07:57:22;;;;;;;3.00;1.60;;;;;;;4.49;100.00;92589.50;6144628;23;20001;-74
2023/11/09 07:59:48;;;;;;;1.60;1.10;;;;;;;4.45;100.00;92582.47;6144856;23;20018;-74
2023/11/09 08:02:14;;;;;;;3.65;1.38;;;;;;;4.45;100.00;92588.44;6144508;23;20482;-74
2023/11/09 08:04:41;;;;;;;4.90;1.70;;;;;;;4.50;100.00;92579.91;6145042;23;20385;-74
2023/11/09 08:07:08;;;;;;;3.17;1.35;;;;;;;4.57;100.00;92578.69;6142833;23;20002;-74
2023/11/09 08:09:36;;;;;;;2.72;1.60;;;;;;;4.68;100.00;92570.97;6144630;23;20028;-74
2023/11/09 08:12:01;;;;;;;2.60;1.50;;;;;;;4.78;100.00;92574.44;6144840;23;20313;-74
2023/11/09 08:14:27;;;;;;;3.78;1.40;;;;;;;4.89;100.00;92577.13;6143114;23;20017;-74
2023/11/09 08:16:53;;;;;;;3.15;1.40;;;;;;;4.98;100.00;92575.63;6145059;23;20028;-74
2023/11/09 08:19:19;;;;;;;3.70;1.40;;;;;;;5.08;100.00;92570.50;6144758;23;20041;-74
2023/11/09 08:21:45;;;;;;;3.10;1.35;;;;;;;5.17;100.00;92579.38;6143091;23;20036;-74
2023/11/09 08:24:11;;;;;;;1.65;1.20;;;;;;;5.28;100.00;92582.06;6142482;23;20533;-74
2023/11/09 08:26:36;;;;;;;1.80;1.20;;;;;;;5.38;100.00;92576.91;6143423;23;20006;-74
2023/11/09 08:29:02;;;;;;;1.98;1.40;;;;;;;5.35;100.00;92587.78;6145046;23;20092;-73
2023/11/09 08:31:28;;;;;;;2.05;1.35;;;;;;;5.32;100.00;92583.13;6144885;23;20031;-74
2023/11/09 08:33:56;;;;;;;4.90;1.20;;;;;;;5.19;100.00;92574.72;6144862;23;20101;-74
2023/11/09 08:36:22;;;;;;;2.30;1.40;;;;;;;5.23;100.00;92569.81;6142979;23;20005;-74
2023/11/09 08:38:48;;;;;;;4.75;1.70;;;;;;;5.29;100.00;92568.03;6143000;23;20066;-74
2023/11/09 08:41:15;;;;;;;2.88;1.40;;;;;;;5.30;100.00;92572.97;6144753;23;20026;-74
2023/11/09 08:43:41;;;;;;;2.90;1.40;;;;;;;5.34;100.00;92571.44;6144984;23;20632;-73
2023/11/09 08:46:07;;;;;;;12.27;2.30;;;;;;;5.37;100.00;92570.94;6145483;23;20017;-74
2023/11/09 08:48:35;;;;;;;4.38;1.70;;;;;;;5.53;100.00;92563.22;6145769;23;20379;-74
2023/11/09 08:51:01;;;;;;;3.03;1.50;;;;;;;5.42;100.00;92570.19;6143895;23;20426;-74
2023/11/09 08:53:31;;;;;;;4.30;1.63;;;;;;;5.32;100.00;92567.53;6145358;23;20013;-74
2023/11/09 08:56:00;;;;;;;5.88;1.45;;;;;;;5.31;100.00;92568.56;6145011;23;20013;-73
2023/11/09 08:58:29;;;;;;;3.13;1.67;;;;;;;5.28;100.00;92569.06;6145818;23;20018;-73
2023/11/09 09:01:01;;;;;;;4.25;1.60;;;;;;;5.30;100.00;92569.59;6143879;23;20378;-73
2023/11/09 09:03:29;;;;;;;4.10;1.77;;;;;;;5.35;100.00;92560.00;6144994;23;20063;-73
2023/11/09 09:05:55;;;;;;;2.53;1.58;;;;;;;5.38;100.00;92564.72;6143026;23;20062;-74
2023/11/09 09:08:26;;;;;;;2.67;1.50;;;;;;;5.39;100.00;92561.09;6144928;23;20268;-74
2023/11/09 09:10:56;;;;;;;9.30;1.75;;;;;;;5.08;100.00;92569.72;6145688;23;20462;-73
2023/11/09 09:13:28;;;;;;;3.70;1.90;;;;;;;4.98;100.00;92566.03;6144953;23;20071;-73
2023/11/09 09:15:55;;;;;;;3.95;1.90;;;;;;;4.82;100.00;92566.16;6144511;23;20041;-73
2023/11/09 09:18:21;;;;;;;2.92;1.77;;;;;;;4.77;100.00;92564.31;6144564;23;20024;-74
2023/11/09 09:20:48;;;;;;;4.80;2.15;;;;;;;4.80;100.00;92559.41;6145601;23;20347;-74
2023/11/09 09:23:14;;;;;;;4.55;2.13;;;;;;;4.84;100.00;92564.09;6145069;23;20349;-74
2023/11/09 09:25:39;;;;;;;3.88;2.00;;;;;;;4.91;100.00;92559.47;6144761;23;20393;-74
2023/11/09 09:28:09;;;;;;;5.78;2.03;;;;;;;4.95;100.00;92557.97;6144038;23;20001;-73
2023/11/09 09:30:35;;;;;;;5.60;2.17;;;;;;;5.03;100.00;92551.53;6142739;23;20017;-74
2023/11/09 09:33:01;;;;;;;4.15;2.10;;;;;;;5.06;100.00;92556.22;6144870;23;20446;-74
2023/11/09 09:35:28;;;;;;;3.30;1.80;;;;;;;5.14;100.00;92569.50;6144499;23;20021;-74
2023/11/09 09:37:54;;;;;;;6.55;1.77;;;;;;;5.18;100.00;92557.59;6144256;23;20022;-74
2023/11/09 09:40:23;;;;;;;3.78;1.85;;;;;;;5.22;100.00;92552.66;6142391;23;20083;-74
2023/11/09 09:42:50;;;;;;;6.25;1.80;;;;;;;5.18;100.00;92543.84;6144303;23;20024;-74
2023/11/09 09:45:26;;;;;;;2.63;1.48;;;;;;;5.21;100.00;92559.69;6143784;23;20532;-74
2023/11/09 09:48:01;;;;;;;4.13;1.63;;;;;;;5.18;100.00;92552.41;6143598;23;20017;-74
2023/11/09 09:50:38;;;;;;;10.55;2.08;;;;;;;5.20;100.00;92552.13;6142109;23;20328;-74
2023/11/09 09:53:08;;;;;;;2.42;1.60;;;;;;;5.22;100.00;92543.09;6144252;23;20440;-73
2023/11/09 09:55:36;;;;;;;4.22;1.65;;;;;;;5.30;100.00;92541.06;6144081;23;20048;-74
2023/11/09 09:58:03;;;;;;;3.60;1.55;;;;;;;5.27;100.00;92537.16;6142595;23;20410;-74
2023/11/09 10:00:31;;;;;;;4.07;1.70;;;;;;;5.28;100.00;92545.72;6143697;23;20010;-74
2023/11/09 10:03:06;;;;;;;4.20;1.77;;;;;;;5.29;100.00;92540.28;6144210;23;20058;-74
2023/11/09 10:05:33;;;;;;;3.88;1.88;;;;;;;5.29;100.00;92534.28;6142404;23;20378;-74
2023/11/09 10:08:04;;;;;;;4.32;1.60;;;;;;;5.29;100.00;92539.47;6143665;23;20021;-74
2023/11/09 10:10:36;;;;;;;4.28;1.60;;;;;;;5.26;100.00;92540.00;6143792;23;20092;-74
2023/11/09 10:13:06;;;;;;;4.28;1.65;;;;;;;5.20;100.00;92521.81;6143789;23;20022;-74
2023/11/09 10:15:32;;;;;;;4.65;1.48;;;;;;;5.21;100.00;92523.34;6144573;23;20021;-74
2023/11/09 10:17:59;;;;;;;2.55;1.52;;;;;;;5.22;100.00;92527.53;6143678;23;20027;-74
2023/11/09 10:20:25;;;;;;;3.65;1.50;;;;;;;5.24;100.00;92510.91;6144027;23;20435;-73
2023/11/09 10:22:54;;;;;;;3.90;1.70;;;;;;;5.26;100.00;92516.63;6142335;23;20103;-74
2023/11/09 10:25:27;;;;;;;5.47;1.50;;;;;;;5.29;100.00;92508.31;6143854;23;20013;-74
2023/11/09 10:28:00;;;;;;;4.60;1.52;;;;;;;5.29;100.00;92503.13;6143766;23;20013;-73
2023/11/09 10:30:29;;;;;;;2.42;1.40;;;;;;;5.27;100.00;92498.22;6143250;23;20018;-74
2023/11/09 10:33:12;;;;;;;3.45;1.60;;;;;;;5.31;100.00;92490.69;6143554;23;20020;-74
2023/11/09 10:35:38;;;;;;;;;;;;;;;5.28;100.00;92491.19;6145573;23;20443;-74
2023/11/09 10:38:09;;;;;;;3.15;1.45;;;;;;;5.26;100.00;92488.06;6145421;23;19911;-74
2023/11/09 10:40:42;;;;;;;3.05;1.40;;;;;;;5.25;100.00;92481.34;6145208;23;20328;-74
2023/11/09 10:43:09;;;;;;;2.97;1.48;;;;;;;5.22;100.00;92473.03;6145908;23;20014;-74
2023/11/09 10:45:38;;;;;;;2.67;1.42;;;;;;;5.24;100.00;92477.16;6143513;23;20431;-74
2023/11/09 10:48:09;;;;;;;2.88;1.60;;;;;;;5.25;100.00;92478.75;6145783;23;20013;-74
2023/11/09 10:50:44;;;;;;;3.10;1.65;;;;;;;5.24;100.00;92470.16;6143487;23;20351;-74
2023/11/09 10:53:15;;;;;;;2.25;1.38;;;;;;;5.21;100.00;92463.66;6145240;23;20009;-73
2023/11/09 10:55:59;;;;;;;3.03;1.60;;;;;;;5.21;100.00;92465.47;6144610;23;20040;-74
2023/11/09 10:58:26;;;;;;;2.67;1.50;;;;;;;5.25;100.00;92458.75;6144857;23;20072;-74
2023/11/09 11:00:58;;;;;;;4.00;1.90;;;;;;;5.25;100.00;92457.97;6143429;23;20009;-74
2023/11/09 11:03:36;;;;;;;;;;;;;;;5.10;100.00;92454.25;6120126;23;20458;-74
2023/11/09 11:06:16;;;;;;;4.00;1.98;;;;;;;4.97;100.00;92449.53;6144167;23;19912;-73
2023/11/09 11:08:44;;;;;;;3.53;1.88;;;;;;;4.87;100.00;92452.88;6145267;23;20091;-73
2023/11/09 11:11:18;;;;;;;4.25;1.98;;;;;;;4.91;100.00;92442.75;6145006;23;20068;-73
2023/11/09 11:13:48;;;;;;;3.13;1.70;;;;;;;4.97;100.00;92441.75;6144445;23;20010;-73
2023/11/09 11:16:36;;;;;;;4.00;2.10;;;;;;;5.05;100.00;92440.50;6144660;23;20062;-74
2023/11/09 11:19:11;;;;;;;4.72;2.22;;;;;;;5.12;100.00;92430.66;6144868;23;20380;-74
2023/11/09 11:22:05;;;;;;;4.90;2.30;;;;;;;5.19;100.00;92428.63;6144993;23;20013;-74
2023/11/09 11:24:55;;;;;;;3.50;1.80;;;;;;;5.26;100.00;92430.97;6144980;23;20006;-74
2023/11/09 11:28:05;;;;;;;3.60;1.90;;;;;;;5.33;100.00;92423.72;6145103;23;20013;-76
2023/11/09 11:30:33;;;;;;;4.47;2.20;;;;;;;5.35;100.00;92416.47;6160260;23;20017;-76
2023/11/09 11:33:14;;;;;;;4.95;2.10;;;;;;;5.36;100.00;92411.03;6149302;23;20021;-77
2023/11/09 11:35:48;;;;;;;5.53;2.05;;;;;;;5.42;100.00;92415.19;6150491;23;20009;-78
2023/11/09 11:38:13;;;;;;;4.80;1.90;;;;;;;5.48;100.00;92418.59;6147149;23;20438;-77
2023/11/09 11:40:39;;;;;;;4.40;2.00;;;;;;;5.47;100.00;92411.84;6147291;23;20009;-77
2023/11/09 11:43:06;;;;;;;4.50;1.70;;;;;;;5.43;100.00;92408.19;6122247;23;20014;-77
2023/11/09 11:45:34;;;;;;;2.90;1.50;;;;;;;5.39;100.00;92409.75;6148628;23;20052;-77
2023/11/09 11:48:01;;;;;;;3.60;1.70;;;;;;;5.36;100.00;92405.06;6147383;23;20016;-77